Latest Coastal Weather Observations for Double Island Point

IDQ60701

Issued at 2:05 am EST Monday 22 September 2014 (issued every 10 minutes, with the page automatically refreshed every 10 minutes)

About coastal observations | Map of coastal stations | Coastal observations for QLD | Marine services | Other Formats
Station Details ID: 040068 Name: DOUBLE ISLAND POINT LIGHTHOUSE Lat: -25.93 Lon: 153.19 Height: 95.64 m
Data from the previous 72 hours. | See also: Recent months at Double Island Point
Date/Time
EST
Temp

°C
Wind Pressure Rain
since 9am
mm
Weather Cloud Vis
km
Sea
Height
m
Swell
Dir
 
Speed
knots
Gust
knots
hPa Trend Height
m
Period
s
Dir
22/02:00am 18.8 ESE 27 31 1023.4 - 0.0 - - - - - - -
22/01:30am 18.7 ESE 26 31 1023.9 - 0.0 - - - - - - -
22/01:00am 18.8 ESE 25 30 1024.0 - 0.0 - - - - - - -
22/12:30am 18.9 ESE 25 29 1024.2 - 0.0 - - - - - - -
22/12:00am 18.9 ESE 25 29 1024.6 - 0.0 - - - - - - -
 
Date/Time
EST
Temp

°C
Wind Pressure Rain
since 9am
mm
Weather Cloud Vis
km
Sea
Height
m
Swell
Dir
 
Speed
knots
Gust
knots
hPa Trend Height
m
Period
s
Dir
21/11:30pm 18.9 ESE 24 30 1024.8 - 0.0 - - - - - - -
21/11:00pm 18.9 ESE 24 28 1024.7 - 0.0 - - - - - - -
21/10:30pm 18.9 ESE 24 29 1024.8 - 0.0 - - - - - - -
21/10:00pm 19.0 ESE 24 28 1025.1 - 0.0 - - - - - - -
21/09:30pm 19.2 ESE 25 31 1024.6 - 0.0 - - - - - - -
21/09:00pm 18.7 E 26 32 1024.6 - 0.0 - - - - - - -
21/08:36pm 18.9 ESE 24 35 1024.5 - 0.0 - - - - - - -
21/08:30pm 18.9 E 23 30 1024.6 - 0.0 - - - - - - -
21/08:00pm 18.8 E 25 30 1024.7 - 0.0 - - - - - - -
21/07:30pm 18.9 E 25 29 1024.4 - 0.0 - - - - - - -
21/07:00pm 18.9 ESE 24 27 1024.2 - 0.0 - - - - - - -
21/06:30pm 19.0 ESE 25 29 1023.8 - 0.0 - - - - - - -
21/06:00pm 19.1 E 23 27 1023.6 - 0.0 - - - - - - -
21/05:30pm 19.2 ESE 24 27 1023.2 - 0.0 - - - - - - -
21/05:00pm 19.3 ESE 23 28 1023.1 - 0.0 - - - - - - -
21/04:30pm 19.2 ESE 24 28 1022.9 - 0.0 - - - - - - -
21/04:00pm 19.5 ESE 21 24 1022.6 - 0.0 - - - - - - -
21/03:30pm 19.5 E 21 25 1022.7 - 0.0 - - - - - - -
21/03:00pm 19.8 E 20 24 1022.6 - 0.0 - - - - - - -
21/02:30pm 20.2 E 20 27 1022.4 - 0.0 - - - - - - -
21/02:00pm 21.3 ESE 18 21 1022.7 - 0.0 - - - - - - -
21/01:30pm 21.4 ESE 18 23 1022.9 - 0.0 - - - - - - -
21/01:00pm 20.9 ESE 18 22 1023.3 - 0.0 - - - - - - -
21/12:30pm 21.2 ESE 19 23 1023.4 - 0.0 - - - - - - -
21/12:00pm 20.9 ESE 20 23 1023.7 - 0.0 - - - - - - -
21/11:30am 21.1 ESE 20 24 1024.0 - 0.0 - - - - - - -
21/11:00am 21.6 ESE 19 23 1024.3 - 0.0 - - - - - - -
21/10:30am 21.4 ESE 20 23 1024.7 - 0.0 - - - - - - -
21/10:00am 21.0 ESE 20 24 1024.8 - 0.0 - - - - - - -
21/09:30am 20.9 ESE 20 24 1024.9 - 0.0 - - - - - - -
21/09:00am 20.4 ESE 20 24 1024.9 - 22.4 Recent precip. - - - - - -
21/08:30am 19.9 ESE 23 26 1024.5 - 22.2 - - - - - - -
21/08:00am 19.7 ESE 22 25 1024.3 - 22.2 - - - - - - -
21/07:30am 19.0 ESE 22 26 1024.0 - 22.2 - - - - - - -
21/07:00am 18.4 ESE 21 27 1023.8 - 22.2 - - - - - - -
21/06:30am 18.0 ESE 22 27 1023.3 - 22.2 - - - - - - -
21/06:23am 17.9 ESE 17 27 1023.2 - 22.2 - - - - - - -
21/06:00am 16.6 E 14 16 1023.3 - 22.2 - - - - - - -
21/05:30am 16.1 SE 25 29 1023.0 - 22.2 - - - - - - -
21/05:00am 17.0 SE 30 33 1022.4 - 22.2 - - - - - - -
21/04:50am 17.5 SE 24 35 1022.2 - 22.2 - - - - - - -
21/04:30am 18.2 ESE 21 25 1022.3 - 22.2 - - - - - - -
21/04:00am 17.9 ESE 21 26 1022.1 - 22.2 - - - - - - -
21/03:30am 17.9 ESE 20 25 1022.0 - 22.2 - - - - - - -
21/03:18am 17.6 ESE 21 22 1022.0 - 22.2 - - - - - - -
21/03:00am 17.1 SE 10 11 1022.0 - 22.2 - - - - - - -
21/02:30am 16.7 ESE 14 17 1022.5 - 22.2 - - - - - - -
21/02:00am 16.0 E 19 23 1022.6 - 22.2 - - - - - - -
21/01:30am 15.8 E 21 24 1022.8 - 21.6 - - - - - - -
21/01:07am 15.8 SE 27 37 1022.8 - 20.6 - - - - - - -
21/01:00am 15.6 SE 31 37 1022.6 - 19.4 - - - - - - -
21/12:56am 15.5 SE 30 35 1022.5 - 18.8 - - - - - - -
21/12:54am 15.9 SE 17 31 1022.8 - 18.6 - - - - - - -
21/12:30am 16.6 ENE 9 13 1023.0 - 17.0 - - - - - - -
21/12:00am 15.9 E 14 19 1023.2 - 16.6 Rain - - - - - -
 
Date/Time
EST
Temp

°C
Wind Pressure Rain
since 9am
mm
Weather Cloud Vis
km
Sea
Height
m
Swell
Dir
 
Speed
knots
Gust
knots
hPa Trend Height
m
Period
s
Dir
20/11:45pm 16.1 E 19 21 1023.1 - 15.8 - - - - - - -
20/11:30pm 16.2 E 7 9 1023.2 - 15.2 - - - - - - -
20/11:00pm 16.2 E 17 24 1023.3 - 14.6 - - - - - - -
20/10:30pm 16.8 E 14 16 1023.4 - 14.2 - - - - - - -
20/10:00pm 16.0 SE 25 31 1022.8 - 13.2 - - - - - - -
20/09:49pm 17.9 ESE 15 25 1022.8 - 10.6 - - - - - - -
20/09:30pm 18.4 E 15 18 1022.5 - 10.4 - - - - - - -
20/09:00pm 18.2 E 16 20 1022.4 - 10.4 - - - - - - -
20/08:30pm 18.1 ESE 16 19 1022.1 - 10.4 - - - - - - -
20/08:00pm 17.4 ESE 17 20 1022.0 - 10.4 - - - - - - -
20/07:30pm 16.5 SE 23 26 1021.5 - 10.4 - - - - - - -
20/07:00pm 15.8 SE 27 32 1020.6 - 10.4 - - - - - - -
20/06:50pm 16.0 SE 28 32 1020.7 - 10.2 - - - - - - -
20/06:41pm 15.3 SSE 39 49 1019.7 - 9.0 - - - - - - -
20/06:38pm 15.8 SSE 40 49 1019.5 - 7.4 - - - - - - -
20/06:37pm 16.2 S 18 49 1020.0 - 7.4 - - - - - - -
20/06:33pm 16.7 S 15 25 1020.3 - 3.2 - - - - - - -
20/06:30pm 17.6 S 14 22 1020.5 - 0.2 - - - - - - -
20/06:00pm 20.8 NE 9 17 1019.2 - 0.0 - - - - - - -
20/05:30pm 20.8 NE 9 12 1018.8 - 0.0 - - - - - - -
20/05:00pm 20.9 ENE 11 14 1018.4 - 0.0 - - - - - - -
20/04:30pm 21.0 E 11 13 1018.2 - 0.0 - - - - - - -
20/04:00pm 21.0 E 12 15 1018.0 - 0.0 - - - - - - -
20/03:30pm 21.8 E 13 15 1017.9 - 0.0 - - - - - - -
20/03:00pm 21.7 ENE 11 13 1017.9 - 0.0 - - - - - - -
20/02:30pm 23.3 NE 10 15 1017.5 - 0.0 - - - - - - -
20/02:00pm 25.6 NNE 9 15 1017.7 - 0.0 - - - - - - -
20/01:30pm 26.2 NNE 8 12 1018.0 - 0.0 - - - - - - -
20/01:00pm 26.4 NNE 7 13 1018.3 - 0.0 - - - - - - -
20/12:30pm 26.4 NNE 11 14 1018.6 - 0.0 - - - - - - -
20/12:00pm 26.4 NNE 9 13 1019.0 - 0.0 - - - - - - -
20/11:30am 26.1 NNE 10 12 1019.6 - 0.0 - - - - - - -
20/11:00am 26.0 N 5 7 1020.0 - 0.0 - - - - - - -
20/10:30am 24.7 N 4 6 1020.3 - 0.0 - - - - - - -
20/10:00am 23.0 N 4 6 1020.6 - 0.0 - - - - - - -
20/09:30am 22.7 N 6 8 1020.9 - 0.0 - - - - - - -
20/09:00am 22.4 N 5 9 1020.9 - 0.0 - - - - - - -
20/08:30am 21.3 NNW 6 9 1020.7 - 0.0 - - - - - - -
20/08:00am 21.0 NNW 5 9 1020.5 - 0.0 - - - - - - -
20/07:30am 20.8 N 4 5 1020.1 - 0.0 - - - - - - -
20/07:00am 19.6 N 3 6 1019.7 - 0.0 - - - - - - -
20/06:30am 18.5 NNW 6 9 1019.4 - 0.0 - - - - - - -
20/06:00am 18.1 NNW 7 9 1019.0 - 0.0 - - - - - - -
20/05:30am 18.2 NW 8 9 1018.7 - 0.0 - - - - - - -
20/05:00am 18.2 NW 8 9 1018.3 - 0.0 - - - - - - -
20/04:30am 18.4 WNW 9 10 1018.0 - 0.0 - - - - - - -
20/04:00am 18.3 WNW 9 10 1017.9 - 0.0 - - - - - - -
20/03:30am 18.3 WNW 9 10 1017.7 - 0.0 - - - - - - -
20/03:00am 18.4 WNW 8 11 1017.7 - 0.0 - - - - - - -
20/02:30am 18.4 NW 9 10 1017.8 - 0.0 - - - - - - -
20/02:00am 18.4 NNW 9 11 1017.9 - 0.0 - - - - - - -
20/01:30am 18.5 NNW 9 11 1018.1 - 0.0 - - - - - - -
20/01:00am 18.8 NNW 7 11 1018.3 - 0.0 - - - - - - -
20/12:30am 18.9 N 7 9 1018.7 - 0.0 - - - - - - -
20/12:00am 19.1 NNW 8 11 1019.0 - 0.0 - - - - - - -
 
Date/Time
EST
Temp

°C
Wind Pressure Rain
since 9am
mm
Weather Cloud Vis
km
Sea
Height
m
Swell
Dir
 
Speed
knots
Gust
knots
hPa Trend Height
m
Period
s
Dir
19/11:30pm 19.5 N 6 11 1019.0 - 0.0 - - - - - - -
19/11:00pm 19.6 N 7 14 1019.2 - 0.0 - - - - - - -
19/10:30pm 19.7 N 8 12 1019.2 - 0.0 - - - - - - -
19/10:00pm 19.8 N 13 19 1019.1 - 0.0 - - - - - - -
19/09:30pm 19.7 N 14 18 1019.0 - 0.0 - - - - - - -
19/09:00pm 19.7 NNE 13 17 1019.3 - 0.0 - - - - - - -
19/08:30pm 19.7 NNE 13 16 1019.3 - 0.0 - - - - - - -
19/08:00pm 19.9 NNE 14 17 1019.1 - 0.0 - - - - - - -
19/07:30pm 19.8 NNE 16 19 1018.7 - 0.0 - - - - - - -
19/07:00pm 19.9 NNE 17 20 1018.2 - 0.0 - - - - - - -
19/06:30pm 20.0 NNE 14 19 1017.5 - 0.0 - - - - - - -
19/06:00pm 20.1 NNE 15 22 1017.2 - 0.0 - - - - - - -
19/05:30pm 20.5 NNE 13 21 1017.0 - 0.0 - - - - - - -
19/05:00pm 21.3 NNE 14 20 1016.7 - 0.0 - - - - - - -
19/04:30pm 22.1 NNE 14 18 1016.5 - 0.0 - - - - - - -
19/04:00pm 22.7 NNE 13 18 1016.2 - 0.0 - - - - - - -
19/03:30pm 23.3 NE 10 16 1016.3 - 0.0 - - - - - - -
19/03:00pm 23.9 NE 10 14 1016.5 - 0.0 - - - - - - -
19/02:30pm 24.2 NE 9 14 1016.6 - 0.0 - - - - - - -
19/02:00pm 23.7 NE 9 14 1016.8 - 0.0 - - - - - - -
19/01:30pm 24.1 NE 8 13 1017.4 - 0.0 - - - - - - -
19/01:00pm 24.9 NNE 7 9 1017.9 - 0.0 - - - - - - -
19/12:30pm 26.0 NNE 7 10 1018.5 - 0.0 - - - - - - -
19/12:00pm 25.4 NNE 7 11 1019.1 - 0.0 - - - - - - -
19/11:30am 25.2 NNE 7 9 1019.7 - 0.0 - - - - - - -
19/11:00am 25.1 N 6 9 1020.2 - 0.0 - - - - - - -
19/10:30am 24.6 N 4 6 1020.4 - 0.0 - - - - - - -
19/10:00am 23.7 N 4 7 1020.9 - 0.0 - - - - - - -
19/09:30am 22.3 NNW 6 9 1021.2 - 0.0 - - - - - - -
19/09:00am 22.5 N 5 6 1021.1 - 0.0 - - - - - - -
19/08:30am 21.6 NNW 4 8 1021.2 - 0.0 - - - - - - -
19/08:00am 20.1 WNW 5 7 1021.1 - 0.0 - - - - - - -
19/07:30am 19.3 WNW 6 7 1021.0 - 0.0 - - - - - - -
19/07:00am 18.5 WNW 6 7 1020.4 - 0.0 - - - - - - -
19/06:30am 17.9 WNW 6 7 1019.9 - 0.0 - - - - - - -
19/06:00am 17.4 NW 3 5 1019.7 - 0.0 - - - - - - -
19/05:30am 17.7 SSW 6 7 1019.5 - 0.0 - - - - - - -
19/05:00am 17.7 SW 3 4 1019.3 - 0.0 - - - - - - -
19/04:30am 17.8 WNW 3 3 1019.1 - 0.0 - - - - - - -
19/04:00am 17.7 NW 4 5 1018.8 - 0.0 - - - - - - -
19/03:30am 18.2 NNW 6 7 1018.7 - 0.0 - - - - - - -
19/03:00am 18.3 NNE 6 7 1018.7 - 0.0 - - - - - - -
19/02:30am 18.8 ENE 5 7 1018.8 - 0.0 - - - - - - -

Other Formats:

Comma delimited format used in spreadsheet applications
http://www.bom.gov.au/fwo/IDQ60701/IDQ60701.94584.axf

JavaScript Object Notation format (JSON) in row-major order
http://www.bom.gov.au/fwo/IDQ60701/IDQ60701.94584.json